Flight Track Log - Related Links

Times and Time Zones

All times are in EDT time to prevent confusion due to time zone crossing. See the ASQ5750 flight status page for this flight to view local times or setup timezone preferences in your user account.

Time Position Orientation Groundspeed Altitude Reporting Facility
EDT Latitude Longitude Course Direction KTS MPH feet Rate Location/Type
Mon 10:54:11 AM 39.0500 -84.6833 351° North 162 186 1,500  Level Cincinnati TRACON
Mon 10:55:29 AM 39.0500 -84.7833 270° West 262 302 4,100 2,547 Climbing Cincinnati TRACON
Mon 10:56:30 AM 39.1167 -84.8333 330° Northwest 274 315 7,400 2,551 Climbing Cincinnati TRACON
Mon 10:57:00 AM 38.9133 -84.7919 313° West  Level FlightAware Approximate
Mon 10:58:00 AM 38.9605 -84.8580 313° West  Level FlightAware Approximate
Mon 10:58:16 AM 39.2417 -84.8889 341° North 295 339 11,200  Level Indianapolis Center
Mon 10:59:00 AM 39.0256 -84.8851 351° North  Level FlightAware Approximate
Mon 10:59:17 AM 39.3339 -84.9253 343° North 338 389 13,300  Level Indianapolis Center
Mon 11:00:19 AM 39.4297 -84.9622 343° North 353 406 15,300 1,984 Climbing Indianapolis Center
Mon 11:01:21 AM 39.5281 -85.0008 343° North 363 418 17,400 1,597 Climbing Indianapolis Center
Mon 11:02:23 AM 39.6283 -85.0383 344° North 369 425 18,600 1,268 Climbing Indianapolis Center
Mon 11:03:24 AM 39.7353 -85.0508 355° North 378 435 20,000 1,317 Climbing Indianapolis Center
Mon 11:04:26 AM 39.8436 -85.0617 356° North 385 443 21,300 968 Climbing Indianapolis Center
Mon 11:05:28 AM 39.9550 -85.0739 355° North 393 452 22,000 339 Climbing Indianapolis Center
Mon 11:06:30 AM 40.0619 -85.1289 339° North 429 494 22,000  Level Indianapolis Center
Mon 11:07:31 AM 40.1611 -85.2564 316° Northwest 429 494 22,000  Level Indianapolis Center
Mon 11:08:33 AM 40.2472 -85.3642 316° Northwest 425 489 22,000  Level Indianapolis Center
Mon 11:09:12 AM 40.3011 -85.4300 317° Northwest 421 484 22,000  Level Chicago Center
Mon 11:10:14 AM 40.3842 -85.5369 316° Northwest 420 483 22,000  Level Chicago Center
Mon 11:11:15 AM 40.4656 -85.6431 315° West 416 479 22,000  Level Chicago Center
Mon 11:12:17 AM 40.5383 -85.7614 309° West 415 478 22,000  Level Chicago Center
Mon 11:13:19 AM 40.6097 -85.8836 308° West 419 482 22,000  Level Chicago Center
Mon 11:14:20 AM 40.6803 -86.0039 308° West 416 479 22,000  Level Chicago Center
Mon 11:15:22 AM 40.7531 -86.1264 308° West 422 486 22,000  Level Chicago Center
Mon 11:16:23 AM 40.8258 -86.2528 307° West 431 496 22,000  Level Chicago Center
Mon 11:17:25 AM 40.8983 -86.3775 308° West 428 493 22,000  Level Chicago Center
Mon 11:18:27 AM 40.9864 -86.5311 307° West 435 501 22,000 -537 Level Chicago Center
Mon 11:19:28 AM 41.0586 -86.6553 308° West 427 491 20,900 -1,610 Descending Chicago Center
Mon 11:20:30 AM 41.1231 -86.7678 307° West 416 479 18,700 -1,984 Descending Chicago Center
Mon 11:21:32 AM 41.1922 -86.8892 307° West 414 476 16,800 -2,244 Descending Chicago Center
Mon 11:22:33 AM 41.2728 -87.0292 307° West 403 464 14,100 -2,488 Descending Chicago Center
Mon 11:23:35 AM 41.3367 -87.1436 307° West 391 450 11,700 -1,431 Descending Chicago Center
Mon 11:24:43 AM 41.4167 -87.2500 315° West 371 427 11,000 -344 Descending Chicago TRACON
Mon 11:25:37 AM 41.4833 -87.3333 317° Northwest 374 430 11,000  Level Chicago TRACON
Mon 11:26:31 AM 41.5667 -87.4333 318° Northwest 381 438 11,000 -500 Level Chicago TRACON
Mon 11:27:37 AM 41.6500 -87.5167 323° Northwest 375 432 10,000 -476 Descending Chicago TRACON
Mon 11:28:37 AM 41.7333 -87.6000 323° Northwest 353 406 10,000 -417 Level Chicago TRACON
Mon 11:29:32 AM 41.7833 -87.6667 315° West 288 331 9,200 -1,211 Descending Chicago TRACON
Mon 11:30:31 AM 41.8500 -87.7500 317° Northwest 284 327 7,700 -1,100 Descending Chicago TRACON
Mon 11:31:32 AM 41.8833 -87.8333 298° West 276 318 7,000 -347 Descending Chicago TRACON
Mon 11:32:32 AM 41.8833 -87.9333 270° West 285 328 7,000 -50 Level Chicago TRACON
Mon 11:33:32 AM 41.8833 -88.0333 270° West 255 293 6,900 -850 Descending Chicago TRACON
Mon 11:34:32 AM 41.8833 -88.1167 270° West 226 260 5,300 -1,481 Descending Chicago TRACON
Mon 11:34:53 AM 41.8842 -88.1447 272° West 240 276 4,900 -1,143 Descending Chicago Center

Login

Don't have an account? Register now (free) for customized features, flight alerts, and more!